Skip Navigation Links
NOAA logo - Click to go to the NOAA homepage
NOAA's National Weather Service
Alaska Aviation Weather Unit
  NWS logo - Click to go to the NWS homepage
Left Navbar Graphic     22 AKDT = 06 GMT

   
NOAA is celebrating 200 years of science, service, and stewardship. Visit the NOAA 200th celebration Web site to learn more.
USA.gov is the U.S. Government's official Web portal to all Federal, state and local government Web resources and services.
Facebook
NWS on Facebook

Important Change Regarding the AAWU Web Presence

 

Over the last several months, the AAWU has been working to navigate its webpages to a nationally supported server. Security, as well as other needs, have necessitated the change.  In the process, we have made an effort to enhance the functionality of our website, as well as some of our products. As of June 20, 2017, aawu.arh.noaa.gov will be discontinued. The new AAWU web address is weather.gov/aawu. It is now live and will run in-parallel with the old site until it is discontinued. Please send any feedback or questions regarding the new webpages to nws.ar.aawu.webauthors@noaa.gov.  Thank you for your patience during this time of transition.
AAWU Home :: Display TAF Add Bookmark
PAMK 280049Z AUTO 05011KT 10SM SCT018 BKN095 06/03 A2992 RMK AO2
     RAE21 P0000 $=

METAR PAMK 280056Z AUTO 04012KT 10SM FEW018 BKN090 06/03 A2993 RMK AO2
     RAE21 SLP138 P0000 T00610033 $=

METAR PAMK 280156Z AUTO 06009KT 10SM -RA SCT026 OVC033 04/03 A2993 RMK
     AO2 RAB22 SLP140 P0001 T00440028 $=

SPECI PAMK 280208Z AUTO 06012KT 5SM -RA BR FEW014 BKN024 OVC035
 05/03 A2992 RMK AO2 P0001 $=

SPECI PAMK 280225Z AUTO 05009KT 10SM -RA FEW021 BKN038 OVC065 05/04
     A2992 RMK AO2 P0001 $=

METAR PAMK 280256Z AUTO 06009KT 10SM CLR 06/03 A2992 RMK AO2 RAE38
     SLP135 P0001 60002 T00610033 58006 $=

METAR PAMK 280356Z AUTO 07008KT 10SM FEW055 SCT070 07/03 A2992 RMK AO2
     SLP135 T00670028 $=

METAR PAMK 280456Z AUTO 06006KT 10SM FEW080 07/03 A2992 RMK AO2
 RAB10E32 SLP136 P0000 T00670028 $=

METAR PAMK 280556Z AUTO 05006KT 10SM CLR 06/03 A2992 RMK AO2 SLP136
 60002 T00610028 10067 20044 53001 $=


NOAA's National Weather Service
Alaska Aviation Weather Unit
6930 Sand Lake Road
Anchorage, AK 99502-1845
Disclaimer
Credits
Glossary
Privacy Policy
About Us
Career Opportunities
Contact AAWU Internet Services Site last modified: April, 17th 2012